Terminal Aerodrome Forecast
Issued by NWS

Home | Current Version | Previous Version | Text Only | Print | Product List | Glossary On
Versions: 1 2 3 4 5 6 7 8 9 10 11 12 13 14
494
FTUS46 KLOX 241500 AAA
TAFOXR
TAF AMD
KOXR 241500Z 2415/2512 VRB03KT P6SM BKN012
     FM241700 25009KT P6SM SCT200
     FM242100 27018G25KT P6SM SCT200
     FM250300 28012KT P6SM SCT200
     FM250700 30015G22KT P6SM SKC=

USA.gov is the U.S. government's official web portal to all federal, state and local government web resources and services.